Terminal Aerodrome Forecast
Issued by NWS

Home | Current Version | Previous Version | Text Only | Print | Product List | Glossary On
Versions: 1 2 3 4 5 6 7 8 9 10 11 12 13 14 15 16 17 18 19 20 21 22 23 24 25 26 27 28
000
FTUS44 KFWD 260904 AAA
TAFFTW
TAF AMD
KFTW 260904Z 2609/2706 14005KT P6SM FEW300
     FM261300 16012KT P6SM SCT020 SCT250
      TEMPO 2614/2617 BKN015
     FM261700 17017G27KT P6SM SCT020 BKN250
     FM262100 18017G27KT P6SM VCTS SCT035CB BKN120
     FM270000 18017KT P6SM SCT035 BKN120=

USA.gov is the U.S. government's official web portal to all federal, state and local government web resources and services.